| time (UTC) | temp C | wind direction | speed KPH | gust KPH | rain 1hr cm | rain 24hr cm | rain mn cm | humidity % | barometer mb |
| 20260506221603 | 12 | 187 | 3.2 | 11.3 | 0.13 | 0.69 | 0.69 | 92 | 1008.3 |
| 20260506220059 | 12 | 223 | 4.8 | 14.5 | 0.30 | 0.69 | 0.69 | 91 | 1008.3 |
| 20260506214600 | 12 | 190 | 6.4 | 22.5 | 0.43 | 0.66 | 0.66 | 91 | 1008.1 |
| 20260506213101 | 12 | 200 | 4.8 | 16.1 | 0.46 | 0.64 | 0.64 | 91 | 1008.2 |
| 20260506211559 | 12 | 176 | 4.8 | 16.1 | 0.41 | 0.56 | 0.56 | 91 | 1008.5 |
| 20260506210058 | 12 | 221 | 4.8 | 12.9 | 0.23 | 0.36 | 0.36 | 91 | 1008.9 |
| 20260506204600 | 12 | 221 | 3.2 | 9.7 | 0.10 | 0.23 | 0.23 | 90 | 1009.1 |
| 20260506203102 | 12 | 0 | 3.2 | 12.9 | 0.05 | 0.18 | 0.18 | 90 | 1009.0 |
| 20260506201558 | 13 | 209 | 4.8 | 12.9 | 0.05 | 0.15 | 0.15 | 90 | 1009.3 |
| 20260506200100 | 13 | 186 | 3.2 | 12.9 | 0.03 | 0.13 | 0.13 | 90 | 1009.2 |
| 20260506194600 | 13 | 167 | 3.2 | 11.3 | 0.08 | 0.13 | 0.13 | 90 | 1009.2 |
| 20260506193059 | 12 | 184 | 3.2 | 11.3 | 0.10 | 0.13 | 0.13 | 90 | 1009.8 |
| 20260506191604 | 13 | 182 | 4.8 | 12.9 | 0.10 | 0.10 | 0.10 | 89 | 1009.9 |
| 20260506190055 | 13 | 192 | 4.8 | 12.9 | 0.10 | 0.10 | 0.10 | 88 | 1009.7 |
| 20260506184603 | 13 | 174 | 8.0 | 20.9 | 0.05 | 0.05 | 0.05 | 87 | 1009.9 |
| 20260506183104 | 13 | 183 | 8.0 | 19.3 | 0.03 | 0.03 | 0.03 | 86 | 1010.2 |
| 20260506181607 | 14 | 186 | 9.7 | 25.7 | 0.00 | 0.00 | 0.00 | 84 | 1010.5 |
| 20260506180059 | 15 | 180 | 9.7 | 20.9 | 0.00 | 0.00 | 0.00 | 82 | 1010.9 |
| 20260506174557 | 15 | 212 | 8.0 | 22.5 | 0.00 | 0.00 | 0.00 | 81 | 1010.9 |
| 20260506173123 | 15 | 169 | 6.4 | 22.5 | 0.00 | 0.00 | 0.00 | 81 | 1011.2 |
| 20260506171604 | 15 | 207 | 8.0 | 19.3 | 0.00 | 0.00 | 0.00 | 80 | 1011.2 |
| 20260506170109 | 15 | 201 | 3.2 | 14.5 | 0.00 | 0.00 | 0.00 | 80 | 1011.5 |
| 20260506164555 | 15 | 182 | 4.8 | 19.3 | 0.00 | 0.00 | 0.00 | 79 | 1011.4 |
| 20260506163106 | 16 | 132 | 8.0 | 25.7 | 0.00 | 0.00 | 0.00 | 78 | 1011.5 |
| 20260506161605 | 16 | 221 | 9.7 | 25.7 | 0.00 | 0.00 | 0.00 | 77 | 1011.7 |
| 20260506160104 | 16 | 136 | 8.0 | 25.7 | 0.00 | 0.00 | 0.00 | 78 | 1012.0 |
| 20260506154613 | 16 | 173 | 9.7 | 25.7 | 0.00 | 0.00 | 0.00 | 78 | 1012.0 |
| 20260506153059 | 16 | 183 | 6.4 | 17.7 | 0.00 | 0.00 | 0.00 | 78 | 1012.3 |
| 20260506151558 | 16 | 140 | 6.4 | 17.7 | 0.00 | 0.00 | 0.00 | 77 | 1012.1 |
| 20260506150057 | 17 | 171 | 8.0 | 16.1 | 0.00 | 0.00 | 0.00 | 76 | 1012.3 |
| 20260506144606 | 16 | 195 | 6.4 | 19.3 | 0.00 | 0.00 | 0.00 | 77 | 1012.5 |
| 20260506143058 | 16 | 229 | 8.0 | 22.5 | 0.00 | 0.00 | 0.00 | 79 | 1012.7 |
| 20260506141602 | 16 | 195 | 8.0 | 22.5 | 0.00 | 0.00 | 0.00 | 79 | 1012.5 |
| 20260506134556 | 15 | 173 | 6.4 | 19.3 | 0.00 | 0.00 | 0.00 | 80 | 1012.0 |
| 20260506133126 | 16 | 213 | 6.4 | 16.1 | 0.00 | 0.00 | 0.00 | 80 | 1011.8 |
| 20260506131558 | 15 | 97 | 4.8 | 14.5 | 0.00 | 0.00 | 0.00 | 80 | 1012.4 |
| 20260506130122 | 15 | 135 | 4.8 | 16.1 | 0.00 | 0.00 | 0.00 | 82 | 1012.7 |
| 20260506124559 | 15 | 170 | 6.4 | 16.1 | 0.00 | 0.00 | 0.00 | 83 | 1012.6 |
| 20260506123057 | 14 | 199 | 4.8 | 16.1 | 0.00 | 0.00 | 0.00 | 83 | 1012.7 |
| 20260506121559 | 14 | 184 | 1.6 | 14.5 | 0.00 | 0.00 | 0.00 | 84 | 1012.6 |
| 20260506120058 | 13 | 224 | 4.8 | 12.9 | 0.00 | 0.00 | 0.00 | 85 | 1012.6 |
| 20260506114605 | 13 | 182 | 4.8 | 12.9 | 0.00 | 0.00 | 0.00 | 85 | 1012.7 |
| 20260506113058 | 13 | 194 | 4.8 | 12.9 | 0.00 | 0.00 | 0.00 | 85 | 1012.8 |
| 20260506111556 | 13 | 218 | 3.2 | 9.7 | 0.00 | 0.00 | 0.00 | 86 | 1012.7 |
| 20260506110057 | 13 | 213 | 3.2 | 12.9 | 0.00 | 0.00 | 0.00 | 86 | 1012.8 |
| 20260506104635 | 13 | 183 | 3.2 | 9.7 | 0.00 | 0.00 | 0.00 | 86 | 1012.7 |
| 20260506103103 | 13 | 211 | 1.6 | 11.3 | 0.00 | 0.00 | 0.00 | 86 | 1012.8 |
| 20260506101600 | 13 | 227 | 3.2 | 9.7 | 0.00 | 0.00 | 0.00 | 86 | 1012.6 |
| 20260506094603 | 13 | 205 | 3.2 | 11.3 | 0.00 | 0.00 | 0.00 | 86 | 1012.5 |
| 20260506093111 | 13 | 190 | 3.2 | 11.3 | 0.00 | 0.00 | 0.00 | 86 | 1012.6 |
| 20260506091602 | 13 | 196 | 1.6 | 17.7 | 0.00 | 0.00 | 0.00 | 86 | 1012.6 |
| 20260506090059 | 13 | 196 | 3.2 | 9.7 | 0.00 | 0.00 | 0.00 | 86 | 1012.7 |
| 20260506084559 | 13 | 211 | 1.6 | 11.3 | 0.00 | 0.00 | 0.00 | 85 | 1012.8 |
| 20260506083107 | 13 | 199 | 3.2 | 11.3 | 0.00 | 0.00 | 0.00 | 85 | 1012.8 |
| 20260506081602 | 13 | 180 | 3.2 | 14.5 | 0.00 | 0.00 | 0.00 | 85 | 1012.8 |
| 20260506080111 | 13 | 183 | 4.8 | 14.5 | 0.00 | 0.00 | 0.00 | 85 | 1012.9 |
| 20260506073057 | 13 | 208 | 3.2 | 9.7 | 0.00 | 0.00 | 0.00 | 84 | 1013.0 |
| 20260506071621 | 13 | 259 | 3.2 | 14.5 | 0.00 | 0.00 | 0.00 | 84 | 1013.0 |
| 20260506061600 | 13 | 194 | 4.8 | 16.1 | 0.00 | 0.00 | 0.00 | 84 | 1013.1 |
| 20260506044612 | 14 | 198 | 6.4 | 16.1 | 0.00 | 0.00 | 0.00 | 81 | 1013.5 |
| 20260506043059 | 14 | 185 | 4.8 | 17.7 | 0.00 | 0.00 | 0.00 | 80 | 1013.6 |
| 20260506041558 | 14 | 184 | 3.2 | 11.3 | 0.00 | 0.00 | 0.00 | 79 | 1013.6 |
| 20260506040059 | 14 | 188 | 3.2 | 14.5 | 0.00 | 0.00 | 0.00 | 78 | 1013.5 |
| 20260506034601 | 15 | 194 | 3.2 | 17.7 | 0.00 | 0.00 | 0.00 | 78 | 1013.5 |
| 20260506033059 | 15 | 250 | 6.4 | 16.1 | 0.00 | 0.00 | 0.00 | 77 | 1013.5 |
| 20260506031559 | 15 | 193 | 6.4 | 16.1 | 0.00 | 0.00 | 0.00 | 77 | 1013.4 |
| 20260506024558 | 15 | 189 | 3.2 | 14.5 | 0.00 | 0.00 | 0.00 | 76 | 1013.3 |
| 20260506023102 | 15 | 271 | 3.2 | 14.5 | 0.00 | 0.00 | 0.00 | 75 | 1013.2 |
| 20260506021601 | 15 | 184 | 1.6 | 16.1 | 0.00 | 0.00 | 0.00 | 75 | 1013.0 |
| 20260506020059 | 15 | 186 | 4.8 | 14.5 | 0.00 | 0.00 | 0.00 | 74 | 1012.9 |
| 20260506014609 | 15 | 184 | 4.8 | 20.9 | 0.00 | 0.00 | 0.00 | 75 | 1012.8 |
| 20260506013107 | 15 | 226 | 8.0 | 20.9 | 0.00 | 0.00 | 0.00 | 74 | 1012.8 |
| 20260506011607 | 15 | 156 | 4.8 | 17.7 | 0.00 | 0.00 | 0.00 | 74 | 1012.4 |
| 20260506010058 | 15 | 234 | 6.4 | 22.5 | 0.00 | 0.00 | 0.00 | 75 | 1012.5 |
| 20260506004558 | 14 | 213 | 4.8 | 12.9 | 0.00 | 0.00 | 0.00 | 76 | 1012.2 |
| 20260506003112 | 14 | 200 | 3.2 | 12.9 | 0.00 | 0.00 | 0.00 | 76 | 1012.1 |
| 20260506001611 | 14 | 204 | 3.2 | 14.5 | 0.00 | 0.00 | 0.00 | 75 | 1011.8 |
| 20260506000110 | 14 | 158 | 4.8 | 16.1 | 0.00 | 0.00 | 0.00 | 76 | 1011.8 |
| 20260505234611 | 14 | 182 | 4.8 | 14.5 | 0.00 | 0.00 | 0.00 | 76 | 1011.3 |
| 20260505233057 | 14 | 180 | 4.8 | 25.7 | 0.00 | 0.00 | 0.00 | 76 | 1011.0 |
| 20260505231600 | 15 | 175 | 4.8 | 14.5 | 0.00 | 0.00 | 0.00 | 75 | 1011.6 |
| 20260505230058 | 15 | 187 | 4.8 | 17.7 | 0.00 | 0.00 | 0.00 | 74 | 1011.5 |
| 20260505224557 | 15 | 226 | 6.4 | 17.7 | 0.00 | 0.00 | 0.00 | 73 | 1011.3 |
| 20260505223113 | 15 | 230 | 4.8 | 20.9 | 0.00 | 0.00 | 0.00 | 72 | 1011.2 |